createdAt,value
2023-01-03T00:02:22.221Z,76.06
2023-01-03T00:04:50.273Z,76.19
2023-01-03T00:07:33.487Z,76.39
2023-01-03T00:10:01.443Z,76.16
2023-01-03T00:12:32.055Z,76.44
2023-01-03T00:14:59.537Z,77.54
2023-01-03T00:17:26.974Z,78.44
2023-01-03T00:19:54.386Z,78.35
2023-01-03T00:22:23.223Z,78.38
2023-01-03T00:24:50.694Z,78.12
2023-01-03T00:27:18.137Z,78.51
2023-01-03T00:29:46.849Z,78.06
2023-01-03T00:32:14.460Z,78.12
2023-01-03T00:34:43.883Z,77.96
2023-01-03T00:37:11.310Z,78.23
2023-01-03T00:39:38.821Z,78.40
2023-01-03T00:42:06.295Z,78.57
2023-01-03T00:44:33.760Z,78.18
2023-01-03T00:47:02.512Z,78.88
2023-01-03T00:49:29.935Z,78.71
2023-01-03T00:51:57.341Z,78.73
2023-01-03T00:54:24.884Z,78.78
2023-01-03T00:56:52.460Z,78.75
2023-01-03T00:59:21.177Z,78.74
2023-01-03T01:01:49.854Z,78.35
2023-01-03T01:04:19.661Z,78.57
2023-01-03T01:06:48.331Z,78.71
2023-01-03T01:09:16.950Z,78.51
2023-01-03T01:11:44.810Z,78.37
2023-01-03T01:14:20.642Z,78.41
2023-01-03T01:16:48.370Z,78.24
2023-01-03T01:19:16.175Z,78.28
2023-01-03T01:21:45.046Z,78.32
2023-01-03T01:24:17.528Z,78.15
2023-01-03T01:26:45.630Z,78.24
2023-01-03T01:29:13.358Z,78.11
2023-01-03T01:31:40.842Z,77.95
2023-01-03T01:34:08.343Z,78.00
2023-01-03T01:36:37.950Z,77.96
2023-01-03T01:39:07.865Z,78.17
2023-01-03T01:41:54.055Z,77.82
2023-01-03T01:44:46.582Z,77.76
2023-01-03T01:47:15.742Z,78.01
2023-01-03T01:49:43.156Z,77.66
2023-01-03T01:52:10.659Z,77.80
2023-01-03T01:54:40.459Z,77.72
2023-01-03T01:57:07.849Z,77.65
2023-01-03T01:59:35.265Z,77.49
2023-01-03T02:02:02.894Z,77.51
2023-01-03T02:04:33.126Z,77.84
2023-01-03T02:07:00.538Z,77.72
2023-01-03T02:09:27.948Z,77.33
2023-01-03T02:12:12.214Z,77.69
2023-01-03T02:14:45.185Z,77.84
2023-01-03T02:17:15.168Z,77.56
2023-01-03T02:19:53.424Z,77.50
2023-01-03T02:22:53.831Z,77.82
2023-01-03T02:25:37.582Z,77.43
2023-01-03T02:28:40.244Z,77.43
2023-01-03T02:31:10.074Z,77.29
2023-01-03T02:33:39.678Z,77.53
2023-01-03T02:36:08.898Z,77.38
2023-01-03T02:38:40.713Z,76.99
2023-01-03T02:41:09.840Z,77.46
2023-01-03T02:43:39.395Z,77.29
2023-01-03T02:46:07.975Z,77.09
2023-01-03T02:48:41.871Z,77.26
2023-01-03T02:51:11.482Z,77.47
2023-01-03T02:53:39.866Z,77.33
2023-01-03T02:56:08.881Z,77.47
2023-01-03T02:58:37.076Z,77.29
2023-01-03T03:01:04.664Z,77.39
2023-01-03T03:03:34.292Z,77.17
2023-01-03T03:06:05.703Z,77.21
2023-01-03T03:08:33.516Z,77.34
2023-01-03T03:11:18.544Z,77.13
2023-01-03T03:13:46.984Z,77.08
2023-01-03T03:16:18.419Z,77.00
2023-01-03T03:18:51.543Z,77.08
2023-01-03T03:21:38.493Z,76.95
2023-01-03T03:24:24.271Z,76.96
2023-01-03T03:26:51.682Z,77.18
2023-01-03T03:29:18.169Z,77.03
2023-01-03T03:32:06.686Z,77.02
2023-01-03T03:34:38.061Z,77.02
2023-01-03T03:37:10.232Z,76.95
2023-01-03T03:39:55.603Z,76.94
2023-01-03T03:42:41.497Z,76.97
2023-01-03T03:45:12.416Z,77.13
2023-01-03T03:47:42.623Z,77.33
2023-01-03T03:50:11.521Z,77.04
2023-01-03T03:52:40.185Z,76.96
2023-01-03T03:55:10.833Z,77.03
2023-01-03T03:57:39.645Z,76.92
2023-01-03T04:00:09.797Z,76.92
2023-01-03T04:02:39.942Z,76.71
2023-01-03T04:05:09.081Z,76.94
2023-01-03T04:07:36.481Z,76.90
2023-01-03T04:10:05.585Z,76.97
2023-01-03T04:12:32.998Z,77.07
2023-01-03T04:15:00.434Z,76.71
2023-01-03T04:17:27.846Z,76.90
2023-01-03T04:19:55.251Z,77.12
2023-01-03T04:22:22.642Z,76.66
2023-01-03T04:24:50.062Z,76.96
2023-01-03T04:27:18.768Z,76.83
2023-01-03T04:29:46.208Z,76.88
2023-01-03T04:32:13.656Z,76.69
2023-01-03T04:34:41.150Z,77.02
2023-01-03T04:37:08.625Z,76.65
2023-01-03T04:39:36.047Z,76.71
2023-01-03T04:42:23.441Z,76.62
2023-01-03T04:44:51.205Z,76.69
2023-01-03T04:47:18.593Z,76.89
2023-01-03T04:49:46.513Z,76.79
2023-01-03T04:52:13.916Z,76.57
2023-01-03T04:54:41.431Z,76.60
2023-01-03T04:57:08.949Z,76.58
2023-01-03T04:59:36.500Z,76.48
2023-01-03T05:02:05.309Z,76.61
2023-01-03T05:04:32.865Z,76.57
2023-01-03T05:07:00.299Z,76.32
2023-01-03T05:09:27.778Z,76.56
2023-01-03T05:11:55.162Z,76.67
2023-01-03T05:14:22.591Z,76.54
2023-01-03T05:16:50.004Z,76.29
2023-01-03T05:19:18.873Z,76.38
2023-01-03T05:22:06.778Z,76.46
2023-01-03T05:24:51.308Z,76.33
2023-01-03T05:27:18.704Z,76.31
2023-01-03T05:29:47.372Z,76.42
2023-01-03T05:32:14.793Z,76.21
2023-01-03T05:34:43.521Z,76.58
2023-01-03T05:37:10.944Z,76.35
2023-01-03T05:39:38.356Z,76.21
2023-01-03T05:42:05.889Z,76.33
2023-01-03T05:44:34.161Z,76.21
2023-01-03T05:47:01.868Z,76.23
2023-01-03T05:49:29.298Z,76.14
2023-01-03T05:51:57.984Z,76.40
2023-01-03T05:54:25.870Z,76.44
2023-01-03T05:56:53.275Z,76.30
2023-01-03T05:59:21.019Z,76.05
2023-01-03T06:01:48.579Z,76.15
2023-01-03T06:04:16.292Z,76.16
2023-01-03T06:06:43.732Z,76.21
2023-01-03T06:09:12.423Z,76.19
2023-01-03T06:11:40.094Z,76.14
2023-01-03T06:14:07.509Z,75.88
2023-01-03T06:16:52.420Z,76.18
2023-01-03T06:19:19.927Z,75.94
2023-01-03T06:21:47.328Z,75.96
2023-01-03T06:24:16.019Z,76.11
2023-01-03T06:26:43.424Z,75.88
2023-01-03T06:29:10.835Z,75.85
2023-01-03T06:31:38.250Z,75.89
2023-01-03T06:34:05.641Z,75.84
2023-01-03T06:36:34.459Z,75.68
2023-01-03T06:39:01.983Z,75.50
2023-01-03T06:41:30.690Z,75.51
2023-01-03T06:43:58.105Z,75.60
2023-01-03T06:46:44.560Z,75.61
2023-01-03T06:49:31.918Z,75.52
2023-01-03T06:52:16.655Z,75.67
2023-01-03T06:54:44.053Z,75.49
2023-01-03T06:57:26.809Z,75.52
2023-01-03T06:59:54.781Z,75.47
2023-01-03T07:02:22.321Z,75.57
2023-01-03T07:04:49.867Z,75.65
2023-01-03T07:07:17.357Z,75.61
2023-01-03T07:09:44.758Z,75.43
2023-01-03T07:12:31.003Z,75.53
2023-01-03T07:14:59.437Z,75.38
2023-01-03T07:17:26.840Z,75.35
2023-01-03T07:19:54.250Z,74.95
2023-01-03T07:22:21.649Z,74.95
2023-01-03T07:24:49.057Z,75.24
2023-01-03T07:27:17.752Z,75.19
2023-01-03T07:29:45.187Z,75.58
2023-01-03T07:32:12.589Z,75.87
2023-01-03T07:34:40.001Z,75.40
2023-01-03T07:37:07.429Z,75.65
2023-01-03T07:39:34.854Z,75.56
2023-01-03T07:42:19.850Z,75.68
2023-01-03T07:44:48.544Z,76.05
2023-01-03T07:47:15.938Z,75.52
2023-01-03T07:49:43.345Z,75.73
2023-01-03T07:52:11.997Z,75.45
2023-01-03T07:54:39.373Z,75.51
2023-01-03T07:57:06.779Z,75.59
2023-01-03T07:59:34.221Z,75.45
2023-01-03T08:02:03.464Z,75.50
2023-01-03T08:04:31.006Z,75.38
2023-01-03T08:06:58.511Z,75.75
2023-01-03T08:09:43.303Z,75.80
2023-01-03T08:12:28.657Z,75.51
2023-01-03T08:14:56.076Z,75.50
2023-01-03T08:17:24.771Z,75.42
2023-01-03T08:19:52.177Z,75.58
2023-01-03T08:22:19.577Z,75.65
2023-01-03T08:24:47.007Z,76.08
2023-01-03T08:27:14.417Z,75.58
2023-01-03T08:29:41.833Z,75.79
2023-01-03T08:32:09.262Z,75.41
2023-01-03T08:34:38.006Z,75.68
2023-01-03T08:37:07.641Z,76.06
2023-01-03T08:39:37.699Z,76.00
2023-01-03T08:42:06.138Z,75.73
2023-01-03T08:44:33.546Z,75.76
2023-01-03T08:47:01.274Z,75.48
2023-01-03T08:49:28.710Z,74.99
2023-01-03T08:51:57.387Z,75.48
2023-01-03T08:54:24.790Z,75.22
2023-01-03T08:56:52.192Z,74.96
2023-01-03T08:59:19.600Z,74.97
2023-01-03T09:01:47.186Z,74.98
2023-01-03T09:04:14.759Z,74.96
2023-01-03T09:06:42.210Z,74.98
2023-01-03T09:09:10.902Z,74.85
2023-01-03T09:11:38.300Z,74.87
2023-01-03T09:14:05.702Z,75.07
2023-01-03T09:16:33.170Z,74.89
2023-01-03T09:19:02.507Z,74.99
2023-01-03T09:21:30.024Z,75.50
2023-01-03T09:23:58.563Z,74.58
2023-01-03T09:26:27.283Z,74.93
2023-01-03T09:28:54.689Z,74.66
2023-01-03T09:31:22.144Z,74.65
2023-01-03T09:33:49.598Z,75.04
2023-01-03T09:36:17.073Z,74.66
2023-01-03T09:38:44.755Z,74.85
2023-01-03T09:41:22.991Z,74.78
2023-01-03T09:43:52.969Z,74.78
2023-01-03T09:46:21.674Z,74.64
2023-01-03T09:48:49.488Z,74.60
2023-01-03T09:51:36.637Z,74.67
2023-01-03T09:54:33.315Z,74.63
2023-01-03T09:57:23.209Z,74.65
2023-01-03T10:00:12.834Z,74.65
2023-01-03T10:03:12.978Z,74.36
2023-01-03T10:06:01.501Z,74.20
2023-01-03T10:08:34.211Z,74.04
2023-01-03T10:11:05.839Z,74.52
2023-01-03T10:13:41.259Z,74.47
2023-01-03T10:16:12.158Z,74.25
2023-01-03T10:19:06.755Z,74.53
2023-01-03T10:21:38.921Z,74.68
2023-01-03T10:24:15.086Z,74.71
2023-01-03T10:26:42.560Z,74.58
2023-01-03T10:29:09.964Z,74.54
2023-01-03T10:31:54.358Z,74.44
2023-01-03T10:34:21.845Z,74.69
2023-01-03T10:36:49.274Z,74.41
2023-01-03T10:39:16.683Z,74.26
2023-01-03T10:41:44.843Z,74.35
2023-01-03T10:44:23.357Z,74.36
2023-01-03T10:46:53.473Z,74.38
2023-01-03T10:49:30.355Z,74.52
2023-01-03T10:51:59.970Z,74.26
2023-01-03T10:54:30.960Z,74.39
2023-01-03T10:56:58.500Z,74.28
2023-01-03T10:59:26.605Z,74.42
2023-01-03T11:01:58.925Z,74.10
2023-01-03T11:04:26.585Z,74.32
2023-01-03T11:07:03.882Z,74.58
2023-01-03T11:09:34.946Z,74.18
2023-01-03T11:12:05.256Z,74.29
2023-01-03T11:14:33.212Z,74.17
2023-01-03T11:17:03.664Z,74.45
2023-01-03T11:19:32.442Z,74.42
2023-01-03T11:22:12.456Z,74.34
2023-01-03T11:25:05.089Z,74.12
2023-01-03T11:27:50.898Z,74.09
2023-01-03T11:30:20.558Z,73.86
2023-01-03T11:32:57.150Z,74.05
2023-01-03T11:35:48.422Z,74.05
2023-01-03T11:38:26.925Z,74.19
2023-01-03T11:41:00.967Z,74.24
2023-01-03T11:43:37.905Z,74.34
2023-01-03T11:46:22.261Z,74.07
2023-01-03T11:49:08.464Z,74.11
2023-01-03T11:51:40.248Z,73.87
2023-01-03T11:54:11.694Z,73.81
2023-01-03T11:56:39.278Z,74.00
2023-01-03T11:59:24.643Z,73.74
2023-01-03T12:02:25.963Z,73.91
2023-01-03T12:04:59.660Z,74.18
2023-01-03T12:10:16.869Z,74.58
2023-01-03T12:12:53.757Z,74.66
2023-01-03T12:15:22.346Z,74.31
2023-01-03T12:17:51.672Z,74.33
2023-01-03T12:20:23.488Z,73.75
2023-01-03T12:22:52.960Z,73.32
2023-01-03T12:25:22.602Z,72.37
2023-01-03T12:27:51.542Z,72.05
2023-01-03T12:30:25.707Z,71.30
2023-01-03T12:32:55.074Z,70.48
2023-01-03T12:35:29.091Z,70.38
2023-01-03T12:37:56.512Z,70.19
2023-01-03T12:40:27.542Z,69.51
2023-01-03T12:42:58.965Z,70.60
2023-01-03T12:45:34.635Z,70.82
2023-01-03T12:48:03.797Z,71.69
2023-01-03T12:50:34.258Z,69.10
2023-01-03T12:53:03.821Z,71.04
2023-01-03T12:55:35.527Z,70.56
2023-01-03T12:58:22.605Z,70.23
2023-01-03T13:00:57.535Z,70.38
2023-01-03T13:03:26.619Z,70.17
2023-01-03T13:05:57.451Z,70.38
2023-01-03T13:08:33.781Z,69.98
2023-01-03T13:11:02.671Z,70.08
2023-01-03T13:13:30.419Z,69.06
2023-01-03T13:15:57.872Z,69.12
2023-01-03T13:18:35.983Z,69.49
2023-01-03T13:21:28.488Z,69.10
2023-01-03T13:23:59.305Z,68.34
2023-01-03T13:26:26.804Z,68.92
2023-01-03T13:28:54.407Z,68.96
2023-01-03T13:31:47.257Z,68.93
2023-01-03T13:34:19.646Z,68.08
2023-01-03T13:37:12.366Z,67.43
2023-01-03T13:39:39.821Z,67.98
2023-01-03T13:42:07.296Z,68.06
2023-01-03T13:44:34.711Z,67.97
2023-01-03T13:47:02.146Z,67.49
2023-01-03T13:49:29.658Z,67.41
2023-01-03T13:51:57.384Z,66.23
2023-01-03T13:54:36.950Z,66.42
2023-01-03T13:57:51.410Z,65.91
2023-01-03T14:00:20.660Z,65.97
2023-01-03T14:03:24.781Z,66.16
2023-01-03T14:06:15.131Z,65.71
2023-01-03T14:09:03.666Z,65.90
2023-01-03T14:11:38.324Z,66.92
2023-01-03T14:14:06.458Z,66.93
2023-01-03T14:16:42.976Z,65.80
2023-01-03T14:19:13.679Z,66.13
2023-01-03T14:21:46.886Z,66.38
2023-01-03T14:24:18.170Z,66.32
2023-01-03T14:26:46.889Z,66.63
2023-01-03T14:29:18.165Z,66.96
2023-01-03T14:31:46.659Z,66.83
2023-01-03T14:34:18.391Z,67.28
2023-01-03T14:36:46.359Z,67.58
2023-01-03T14:39:21.769Z,67.66
2023-01-03T14:41:50.712Z,68.10
2023-01-03T14:44:18.163Z,68.19
2023-01-03T14:46:50.188Z,68.43
2023-01-03T14:49:21.317Z,68.50
2023-01-03T14:51:48.761Z,68.44
2023-01-03T14:54:18.569Z,68.47
2023-01-03T14:56:46.585Z,68.50
2023-01-03T14:59:15.536Z,68.79
2023-01-03T15:01:43.152Z,68.74
2023-01-03T15:04:11.784Z,69.13
2023-01-03T15:06:39.233Z,68.84
2023-01-03T15:09:15.928Z,69.21
2023-01-03T15:11:56.909Z,69.17
2023-01-03T15:14:26.358Z,69.24
2023-01-03T15:16:53.863Z,69.35
2023-01-03T15:19:22.178Z,69.33
2023-01-03T15:21:49.598Z,69.24
2023-01-03T15:24:18.149Z,69.31
2023-01-03T15:26:48.864Z,69.36
2023-01-03T15:29:17.465Z,69.46
2023-01-03T15:31:51.540Z,69.74
2023-01-03T15:34:19.885Z,69.47
2023-01-03T15:36:49.137Z,69.61
2023-01-03T15:39:18.459Z,69.61
2023-01-03T15:42:42.441Z,69.90
2023-01-03T15:44:51.030Z,69.85
2023-01-03T15:47:20.307Z,69.99
2023-01-03T15:49:48.831Z,69.77
2023-01-03T15:52:16.329Z,70.07
2023-01-03T15:54:44.644Z,69.82
2023-01-03T15:57:13.696Z,70.20
2023-01-03T15:59:43.488Z,70.08
2023-01-03T16:02:14.610Z,70.34
2023-01-03T16:04:43.481Z,70.04
2023-01-03T16:07:11.468Z,70.22
2023-01-03T16:09:38.890Z,70.36
2023-01-03T16:12:06.322Z,70.13
2023-01-03T16:14:34.505Z,70.35
2023-01-03T16:17:02.053Z,70.46
2023-01-03T16:19:29.887Z,70.30
2023-01-03T16:24:48.429Z,70.46
2023-01-03T16:27:16.798Z,70.47
2023-01-03T16:29:44.296Z,70.43
2023-01-03T16:32:16.520Z,70.48
2023-01-03T16:34:43.978Z,70.48
2023-01-03T16:37:12.704Z,70.68
2023-01-03T16:39:47.461Z,70.53
2023-01-03T16:42:15.595Z,70.71
2023-01-03T16:44:43.645Z,70.57
2023-01-03T16:47:12.753Z,70.44
2023-01-03T16:49:40.176Z,70.69
2023-01-03T16:52:07.570Z,70.57
2023-01-03T16:54:36.303Z,70.40
2023-01-03T16:57:03.698Z,70.97
2023-01-03T16:59:31.349Z,70.69
2023-01-03T17:01:58.879Z,70.64
2023-01-03T17:04:26.542Z,70.77
2023-01-03T17:06:53.978Z,70.65
2023-01-03T17:09:21.961Z,70.75
2023-01-03T17:11:50.686Z,71.02
2023-01-03T17:14:19.585Z,70.67
2023-01-03T17:16:47.059Z,70.79
2023-01-03T17:19:51.213Z,71.09
2023-01-03T17:22:05.557Z,70.87
2023-01-03T17:24:32.973Z,70.91
2023-01-03T17:27:03.113Z,70.93
2023-01-03T17:29:30.576Z,71.07
2023-01-03T17:31:57.994Z,70.72
2023-01-03T17:34:26.646Z,70.92
2023-01-03T17:36:54.085Z,70.82
2023-01-03T17:39:21.499Z,71.09
2023-01-03T17:42:06.463Z,70.87
2023-01-03T17:44:35.171Z,71.06
2023-01-03T17:47:20.344Z,71.14
2023-01-03T17:49:47.764Z,70.79
2023-01-03T17:52:23.379Z,70.95
2023-01-03T17:54:50.793Z,71.17
2023-01-03T17:57:18.209Z,70.90
2023-01-03T17:59:46.924Z,71.21
2023-01-03T18:02:17.938Z,71.16
2023-01-03T18:05:14.226Z,71.15
2023-01-03T18:07:34.279Z,71.14
2023-01-03T18:10:01.750Z,71.12
2023-01-03T18:12:29.194Z,70.98
2023-01-03T18:14:57.902Z,71.04
2023-01-03T18:17:28.141Z,71.21
2023-01-03T18:19:55.557Z,71.18
2023-01-03T18:22:23.205Z,71.11
2023-01-03T18:24:50.653Z,71.13
2023-01-03T18:27:18.179Z,71.23
2023-01-03T18:29:45.591Z,71.26
2023-01-03T18:32:26.504Z,71.07
2023-01-03T18:34:54.058Z,71.29
2023-01-03T18:37:21.812Z,71.19
2023-01-03T18:39:49.292Z,71.32
2023-01-03T18:42:34.331Z,71.03
2023-01-03T18:45:01.766Z,71.24
2023-01-03T18:47:30.644Z,71.21
2023-01-03T18:49:58.118Z,71.21
2023-01-03T18:52:26.371Z,71.33
2023-01-03T18:54:54.045Z,71.05
2023-01-03T18:57:21.456Z,71.27
2023-01-03T18:59:49.399Z,71.16
2023-01-03T19:02:17.526Z,71.27
2023-01-03T19:04:51.392Z,71.15
2023-01-03T19:07:19.941Z,71.07
2023-01-03T19:09:47.352Z,71.36
2023-01-03T19:12:15.180Z,70.98
2023-01-03T19:14:46.563Z,71.29
2023-01-03T19:17:14.818Z,71.15
2023-01-03T19:19:42.455Z,71.28
2023-01-03T19:22:17.882Z,71.25
2023-01-03T19:24:45.291Z,71.21
2023-01-03T19:27:14.158Z,71.08
2023-01-03T19:29:42.505Z,71.06
2023-01-03T19:32:12.921Z,71.17
2023-01-03T19:34:40.365Z,71.09
2023-01-03T19:37:09.683Z,71.20
2023-01-03T19:39:38.377Z,71.15
2023-01-03T19:42:25.457Z,71.06
2023-01-03T19:44:53.053Z,71.02
2023-01-03T19:47:20.815Z,70.98
2023-01-03T19:49:48.378Z,71.00
2023-01-03T19:52:15.979Z,70.84
2023-01-03T19:54:44.732Z,70.91
2023-01-03T19:57:16.877Z,70.94
2023-01-03T19:59:44.442Z,70.53
2023-01-03T20:02:25.006Z,70.13
2023-01-03T20:04:53.246Z,69.81
2023-01-03T20:07:20.735Z,69.01
2023-01-03T20:09:49.447Z,68.81
2023-01-03T20:12:18.888Z,68.43
2023-01-03T20:14:46.534Z,68.11
2023-01-03T20:17:18.753Z,67.52
2023-01-03T20:19:46.164Z,67.23
2023-01-03T20:22:30.449Z,66.99
2023-01-03T20:25:02.270Z,66.95
2023-01-03T20:27:29.687Z,66.36
2023-01-03T20:29:57.122Z,65.02
2023-01-03T20:32:25.088Z,65.91
2023-01-03T20:34:52.511Z,66.42
2023-01-03T20:37:19.913Z,66.84
2023-01-03T20:39:47.381Z,66.98
2023-01-03T20:42:21.204Z,67.02
2023-01-03T20:44:48.652Z,68.98
2023-01-03T20:47:16.063Z,69.24
2023-01-03T20:49:43.480Z,68.92
2023-01-03T20:52:14.926Z,69.65
2023-01-03T20:54:42.356Z,69.57
2023-01-03T20:57:14.662Z,69.85
2023-01-03T20:59:43.399Z,69.71
2023-01-03T21:02:11.275Z,68.90
2023-01-03T21:04:38.793Z,68.92
2023-01-03T21:07:11.402Z,69.03
2023-01-03T21:09:38.318Z,69.21
2023-01-03T21:12:05.979Z,69.01
2023-01-03T21:14:33.410Z,69.02
2023-01-03T21:17:02.163Z,69.37
2023-01-03T21:19:29.574Z,69.19
2023-01-03T21:21:58.294Z,69.01
2023-01-03T21:24:25.797Z,69.27
2023-01-03T21:26:53.286Z,69.13
2023-01-03T21:29:21.904Z,69.38
2023-01-03T21:31:49.385Z,69.31
2023-01-03T21:34:18.925Z,69.32
2023-01-03T21:36:46.374Z,69.14
2023-01-03T21:39:13.909Z,69.36
2023-01-03T21:41:55.368Z,69.50
2023-01-03T21:44:22.797Z,69.75
2023-01-03T21:46:50.222Z,69.65
2023-01-03T21:49:19.170Z,68.82
2023-01-03T21:51:46.618Z,69.10
2023-01-03T21:54:14.007Z,69.21
2023-01-03T21:56:46.315Z,69.08
2023-01-03T21:59:14.592Z,69.34
2023-01-03T22:01:56.153Z,69.04
2023-01-03T22:04:25.028Z,69.34
2023-01-03T22:07:00.178Z,69.42
2023-01-03T22:09:45.535Z,68.81
2023-01-03T22:12:15.662Z,68.62
2023-01-03T22:14:44.286Z,68.77
2023-01-03T22:17:11.684Z,68.53
2023-01-03T22:19:40.409Z,68.78
2023-01-03T22:22:08.054Z,68.80
2023-01-03T22:24:35.481Z,68.71
2023-01-03T22:27:02.887Z,68.99
2023-01-03T22:29:30.311Z,68.79
2023-01-03T22:31:57.811Z,68.84
2023-01-03T22:34:25.287Z,68.97
2023-01-03T22:36:53.984Z,69.05
2023-01-03T22:39:21.402Z,69.18
2023-01-03T22:41:48.836Z,69.15
2023-01-03T22:44:16.251Z,69.49
2023-01-03T22:46:43.679Z,69.35
2023-01-03T22:49:11.145Z,69.27
2023-01-03T22:51:38.563Z,69.35
2023-01-03T22:54:07.294Z,69.44
2023-01-03T22:56:34.697Z,69.43
2023-01-03T22:59:02.238Z,69.61
2023-01-03T23:01:30.099Z,69.44
2023-01-03T23:03:59.696Z,69.69
2023-01-03T23:06:27.619Z,69.47
2023-01-03T23:08:55.228Z,69.67
2023-01-03T23:11:42.860Z,69.76
2023-01-03T23:14:11.558Z,69.76
2023-01-03T23:16:39.050Z,69.50
2023-01-03T23:19:07.601Z,69.52
2023-01-03T23:21:35.138Z,69.58
2023-01-03T23:24:02.572Z,69.56
2023-01-03T23:26:31.300Z,69.60
2023-01-03T23:28:59.785Z,69.38
2023-01-03T23:31:27.933Z,69.40
2023-01-03T23:33:55.375Z,69.61
2023-01-03T23:36:22.780Z,69.51
2023-01-03T23:38:50.189Z,69.62
2023-01-03T23:41:18.024Z,69.53
2023-01-03T23:43:46.721Z,69.65
2023-01-03T23:46:15.545Z,69.50
2023-01-03T23:48:43.015Z,69.55
2023-01-03T23:51:10.526Z,69.64
2023-01-03T23:53:38.226Z,69.56
2023-01-03T23:56:05.956Z,69.74
2023-01-03T23:58:33.368Z,69.57
